createdAt,value
2023-03-07T00:01:29.734Z,-0.65
2023-03-07T00:03:58.894Z,-0.67
2023-03-07T00:06:27.994Z,-0.69
2023-03-07T00:09:00.128Z,-0.76
2023-03-07T00:11:29.597Z,-0.82
2023-03-07T00:13:59.596Z,-0.95
2023-03-07T00:16:28.456Z,-1.07
2023-03-07T00:18:57.010Z,-0.92
2023-03-07T00:21:27.416Z,-0.96
2023-03-07T00:23:56.070Z,-1.01
2023-03-07T00:26:26.117Z,-1.08
2023-03-07T00:28:56.388Z,-1.06
2023-03-07T00:31:26.246Z,-1.19
2023-03-07T00:33:54.960Z,-1.19
2023-03-07T00:36:25.453Z,-1.23
2023-03-07T00:38:54.386Z,-1.31
2023-03-07T00:41:24.923Z,-1.15
2023-03-07T00:43:55.155Z,-1.24
2023-03-07T00:46:26.987Z,-1.17
2023-03-07T00:48:55.551Z,-1.23
2023-03-07T00:51:25.360Z,-1.03
2023-03-07T00:53:53.924Z,-1.12
2023-03-07T00:56:25.094Z,-1.10
2023-03-07T00:58:54.451Z,-1.13
2023-03-07T01:01:26.866Z,-1.10
2023-03-07T01:03:56.369Z,-1.17
2023-03-07T01:06:27.555Z,-1.21
2023-03-07T01:08:58.974Z,-1.24
2023-03-07T01:11:28.570Z,-1.24
2023-03-07T01:13:57.991Z,-1.21
2023-03-07T01:16:30.397Z,-1.24
2023-03-07T01:19:01.498Z,-1.20
2023-03-07T01:21:33.132Z,-1.37
2023-03-07T01:24:02.283Z,-1.37
2023-03-07T01:26:33.082Z,-1.36
2023-03-07T01:29:04.308Z,-1.37
2023-03-07T01:31:34.245Z,-1.43
2023-03-07T01:34:04.113Z,-1.54
2023-03-07T01:36:35.345Z,-1.38
2023-03-07T01:39:07.449Z,-1.51
2023-03-07T01:41:37.852Z,-1.48
2023-03-07T01:44:17.450Z,-1.45
2023-03-07T01:46:52.881Z,-1.52
2023-03-07T01:49:27.267Z,-1.56
2023-03-07T01:52:03.148Z,-1.43
2023-03-07T01:54:32.778Z,-1.46
2023-03-07T01:57:04.665Z,-1.44
2023-03-07T01:59:37.781Z,-1.44
2023-03-07T02:02:13.021Z,-1.35
2023-03-07T02:04:46.296Z,-1.28
2023-03-07T02:07:17.320Z,-1.52
2023-03-07T02:09:48.210Z,-1.41
2023-03-07T02:12:17.806Z,-1.51
2023-03-07T02:14:49.031Z,-1.45
2023-03-07T02:17:19.433Z,-1.39
2023-03-07T02:20:05.526Z,-1.41
2023-03-07T02:22:34.037Z,-1.38
2023-03-07T02:25:07.622Z,-1.44
2023-03-07T02:27:39.811Z,-1.37
2023-03-07T02:30:11.418Z,-1.42
2023-03-07T02:32:40.170Z,-1.30
2023-03-07T02:35:18.852Z,-1.36
2023-03-07T02:37:50.868Z,-1.43
2023-03-07T02:40:22.883Z,-1.39
2023-03-07T02:42:55.757Z,-1.40
2023-03-07T02:45:24.225Z,-1.40
2023-03-07T02:47:52.647Z,-1.41
2023-03-07T02:50:21.231Z,-1.38
2023-03-07T02:52:49.714Z,-1.39
2023-03-07T02:55:18.420Z,-1.26
2023-03-07T02:57:46.940Z,-1.20
2023-03-07T03:00:17.739Z,-1.23
2023-03-07T03:02:46.169Z,-1.26
2023-03-07T03:05:14.922Z,-1.30
2023-03-07T03:07:43.368Z,-1.20
2023-03-07T03:10:12.802Z,-1.32
2023-03-07T03:12:41.285Z,-1.26
2023-03-07T03:15:11.856Z,-1.23
2023-03-07T03:17:42.273Z,-1.43
2023-03-07T03:20:13.073Z,-1.36
2023-03-07T03:22:42.200Z,-1.41
2023-03-07T03:25:13.955Z,-1.40
2023-03-07T03:27:43.429Z,-1.38
2023-03-07T03:30:14.172Z,-1.55
2023-03-07T03:32:44.417Z,-1.55
2023-03-07T03:35:13.350Z,-1.59
2023-03-07T03:37:41.875Z,-1.82
2023-03-07T03:40:17.625Z,-1.94
2023-03-07T03:42:47.891Z,-2.08
2023-03-07T03:45:16.607Z,-1.92
2023-03-07T03:47:48.480Z,-2.23
2023-03-07T03:50:18.273Z,-2.11
2023-03-07T03:52:46.714Z,-2.09
2023-03-07T03:55:15.185Z,-2.06
2023-03-07T03:57:43.682Z,-1.91
2023-03-07T04:00:16.101Z,-2.05
2023-03-07T04:02:46.387Z,-2.09
2023-03-07T04:05:15.200Z,-1.91
2023-03-07T04:07:43.765Z,-1.95
2023-03-07T04:10:13.360Z,-2.11
2023-03-07T04:12:41.848Z,-1.98
2023-03-07T04:15:12.841Z,-2.22
2023-03-07T04:17:41.352Z,-2.23
2023-03-07T04:20:17.629Z,-2.42
2023-03-07T04:22:46.258Z,-2.08
2023-03-07T04:25:15.290Z,-2.43
2023-03-07T04:27:43.748Z,-2.79
2023-03-07T04:30:13.760Z,-2.45
2023-03-07T04:32:42.635Z,-2.51
2023-03-07T04:35:12.707Z,-2.39
2023-03-07T04:37:41.153Z,-2.37
2023-03-07T04:40:11.312Z,-2.68
2023-03-07T04:42:39.831Z,-2.09
2023-03-07T04:45:10.264Z,-2.29
2023-03-07T04:47:38.752Z,-2.47
2023-03-07T04:50:08.792Z,-2.12
2023-03-07T04:52:38.820Z,-2.60
2023-03-07T04:55:08.197Z,-2.77
2023-03-07T05:00:26.129Z,-2.84
2023-03-07T05:02:58.795Z,-2.82
2023-03-07T05:05:27.451Z,-2.56
2023-03-07T05:07:57.309Z,-2.37
2023-03-07T05:10:25.784Z,-3.11
2023-03-07T05:12:54.230Z,-3.19
2023-03-07T05:15:22.945Z,-3.48
2023-03-07T05:17:51.425Z,-3.49
2023-03-07T05:20:20.265Z,-3.49
2023-03-07T05:22:48.850Z,-3.39
2023-03-07T05:25:19.174Z,-3.18
2023-03-07T05:27:47.667Z,-3.28
2023-03-07T05:30:17.804Z,-3.70
2023-03-07T05:32:46.236Z,-3.66
2023-03-07T05:35:14.800Z,-3.62
2023-03-07T05:37:43.232Z,-3.67
2023-03-07T05:40:14.283Z,-3.92
2023-03-07T05:42:44.500Z,-3.57
2023-03-07T05:45:13.695Z,-3.71
2023-03-07T05:47:42.167Z,-3.71
2023-03-07T05:50:13.002Z,-3.79
2023-03-07T05:52:41.565Z,-3.10
2023-03-07T05:55:10.972Z,-3.08
2023-03-07T05:57:39.436Z,-3.01
2023-03-07T06:00:12.394Z,-3.09
2023-03-07T06:02:41.745Z,-3.26
2023-03-07T06:05:10.998Z,-3.11
2023-03-07T06:07:39.453Z,-2.72
2023-03-07T06:10:09.994Z,-2.80
2023-03-07T06:12:38.463Z,-2.80
2023-03-07T06:15:10.446Z,-2.68
2023-03-07T06:17:40.668Z,-2.78
2023-03-07T06:20:11.142Z,-2.56
2023-03-07T06:22:39.693Z,-2.64
2023-03-07T06:25:10.102Z,-2.59
2023-03-07T06:27:40.578Z,-2.35
2023-03-07T06:30:13.570Z,-2.02
2023-03-07T06:32:42.067Z,-1.88
2023-03-07T06:35:11.233Z,-1.92
2023-03-07T06:37:39.791Z,-1.95
2023-03-07T06:40:11.191Z,-1.70
2023-03-07T06:42:40.038Z,-1.81
2023-03-07T06:45:11.158Z,-1.75
2023-03-07T06:47:39.631Z,-1.57
2023-03-07T06:50:10.820Z,-1.56
2023-03-07T06:52:39.290Z,-1.28
2023-03-07T06:55:10.129Z,-1.26
2023-03-07T06:57:38.899Z,-1.27
2023-03-07T07:00:11.418Z,-1.14
2023-03-07T07:02:40.302Z,-1.15
2023-03-07T07:05:09.914Z,-1.12
2023-03-07T07:07:38.366Z,-0.99
2023-03-07T07:10:07.620Z,-1.04
2023-03-07T07:12:36.916Z,-0.93
2023-03-07T07:15:06.549Z,-0.83
2023-03-07T07:17:36.667Z,-0.90
2023-03-07T07:20:06.204Z,-0.74
2023-03-07T07:22:34.873Z,-0.60
2023-03-07T07:25:03.429Z,-0.75
2023-03-07T07:27:31.927Z,-0.59
2023-03-07T07:30:01.332Z,-0.48
2023-03-07T07:32:29.904Z,-0.56
2023-03-07T07:34:59.830Z,-0.44
2023-03-07T07:37:28.315Z,-0.41
2023-03-07T07:39:56.737Z,-0.39
2023-03-07T07:42:25.398Z,-0.11
2023-03-07T07:44:53.882Z,-0.21
2023-03-07T07:47:23.751Z,-0.20
2023-03-07T07:49:52.228Z,-0.46
2023-03-07T07:52:22.242Z,-0.19
2023-03-07T07:54:50.795Z,-0.17
2023-03-07T07:57:21.539Z,-0.17
2023-03-07T07:59:50.957Z,-0.14
2023-03-07T08:02:19.402Z,-0.22
2023-03-07T08:04:48.426Z,-0.17
2023-03-07T08:07:16.848Z,-0.04
2023-03-07T08:09:46.662Z,-0.14
2023-03-07T08:12:15.926Z,0.12
2023-03-07T08:14:44.516Z,0.07
2023-03-07T08:17:14.701Z,0.22
2023-03-07T08:19:43.406Z,0.23
2023-03-07T08:22:12.633Z,0.29
2023-03-07T08:24:41.945Z,0.34
2023-03-07T08:27:11.829Z,0.31
2023-03-07T08:29:40.277Z,0.10
2023-03-07T08:32:11.624Z,0.45
2023-03-07T08:34:40.412Z,0.61
2023-03-07T08:37:08.871Z,0.66
2023-03-07T08:39:37.613Z,0.69
2023-03-07T08:42:07.422Z,0.53
2023-03-07T08:44:37.323Z,0.73
2023-03-07T08:47:05.980Z,0.66
2023-03-07T08:49:34.429Z,0.69
2023-03-07T08:52:03.986Z,0.89
2023-03-07T08:54:33.452Z,1.55
2023-03-07T08:57:01.957Z,1.06
2023-03-07T08:59:30.469Z,1.15
2023-03-07T09:02:01.814Z,0.89
2023-03-07T09:04:30.375Z,1.55
2023-03-07T09:07:00.663Z,1.32
2023-03-07T09:09:30.384Z,1.41
2023-03-07T09:11:59.138Z,0.98
2023-03-07T09:14:27.794Z,1.04
2023-03-07T09:16:56.266Z,1.02
2023-03-07T09:19:26.154Z,1.21
2023-03-07T09:21:55.321Z,1.52
2023-03-07T09:24:23.843Z,1.45
2023-03-07T09:26:52.998Z,1.39
2023-03-07T09:29:21.540Z,1.15
2023-03-07T09:31:51.002Z,1.40
2023-03-07T09:34:19.495Z,1.27
2023-03-07T09:36:52.429Z,1.27
2023-03-07T09:39:20.880Z,1.44
2023-03-07T09:42:13.215Z,1.48
2023-03-07T09:45:04.775Z,1.50
2023-03-07T09:48:04.535Z,1.25
2023-03-07T09:50:42.349Z,1.49
2023-03-07T09:53:25.169Z,1.81
2023-03-07T09:55:58.604Z,1.38
2023-03-07T09:58:28.813Z,1.29
2023-03-07T10:01:01.532Z,1.34
2023-03-07T10:03:37.878Z,0.97
2023-03-07T10:06:16.244Z,0.97
2023-03-07T10:08:47.312Z,1.01
2023-03-07T10:11:29.093Z,1.04
2023-03-07T10:14:20.694Z,0.93
2023-03-07T10:16:56.185Z,1.28
2023-03-07T10:19:34.542Z,1.23
2023-03-07T10:22:13.622Z,1.73
2023-03-07T10:25:15.682Z,1.57
2023-03-07T10:27:48.101Z,1.60
2023-03-07T10:30:21.392Z,1.34
2023-03-07T10:32:58.153Z,1.02
2023-03-07T10:35:41.283Z,1.33
2023-03-07T10:38:21.206Z,1.43
2023-03-07T10:40:56.429Z,1.17
2023-03-07T10:43:27.731Z,1.22
2023-03-07T10:46:02.768Z,1.16
2023-03-07T10:48:32.738Z,1.28
2023-03-07T10:51:09.174Z,1.19
2023-03-07T10:53:40.698Z,1.14
2023-03-07T10:56:16.530Z,1.14
2023-03-07T10:59:01.766Z,1.06
2023-03-07T11:01:31.520Z,1.29
2023-03-07T11:04:02.915Z,1.06
2023-03-07T11:06:37.362Z,0.95
2023-03-07T11:09:25.138Z,1.04
2023-03-07T11:11:59.173Z,1.20
2023-03-07T11:14:30.851Z,1.02
2023-03-07T11:17:02.257Z,1.37
2023-03-07T11:19:37.700Z,1.60
2023-03-07T11:22:22.862Z,1.18
2023-03-07T11:25:02.766Z,1.15
2023-03-07T11:27:40.346Z,1.47
2023-03-07T11:30:25.568Z,1.51
2023-03-07T11:33:01.896Z,1.58
2023-03-07T11:35:51.082Z,1.82
2023-03-07T11:38:33.081Z,1.96
2023-03-07T11:41:09.242Z,1.86
2023-03-07T11:44:13.465Z,1.79
2023-03-07T11:47:01.194Z,1.31
2023-03-07T11:49:45.489Z,1.91
2023-03-07T11:52:44.076Z,1.83
2023-03-07T11:55:28.396Z,1.87
2023-03-07T11:58:20.824Z,1.64
2023-03-07T12:01:08.270Z,1.53
2023-03-07T12:04:42.725Z,1.36
2023-03-07T12:07:27.235Z,1.54
2023-03-07T12:10:03.385Z,1.53
2023-03-07T12:12:49.366Z,1.65
2023-03-07T12:15:35.160Z,1.75
2023-03-07T12:18:38.518Z,1.83
2023-03-07T12:21:25.178Z,1.95
2023-03-07T12:23:59.513Z,2.22
2023-03-07T12:26:36.430Z,2.30
2023-03-07T12:29:14.701Z,2.60
2023-03-07T12:31:47.307Z,2.85
2023-03-07T12:34:29.042Z,3.27
2023-03-07T12:37:02.362Z,2.46
2023-03-07T12:39:41.456Z,2.63
2023-03-07T12:42:20.637Z,2.37
2023-03-07T12:44:53.365Z,2.51
2023-03-07T12:47:30.691Z,2.39
2023-03-07T12:50:06.658Z,3.20
2023-03-07T12:52:45.474Z,3.07
2023-03-07T12:55:25.360Z,3.45
2023-03-07T12:58:04.236Z,3.06
2023-03-07T13:00:37.959Z,3.03
2023-03-07T13:03:07.492Z,3.42
2023-03-07T13:05:39.395Z,3.02
2023-03-07T13:08:08.994Z,3.15
2023-03-07T13:10:38.099Z,3.24
2023-03-07T13:13:52.345Z,3.48
2023-03-07T13:16:42.136Z,3.11
2023-03-07T13:19:52.767Z,3.85
2023-03-07T13:23:01.232Z,3.51
2023-03-07T13:25:56.619Z,3.59
2023-03-07T13:28:51.713Z,3.81
2023-03-07T13:31:30.965Z,3.39
2023-03-07T13:34:46.862Z,4.04
2023-03-07T13:37:58.757Z,3.96
2023-03-07T13:40:54.988Z,3.98
2023-03-07T13:44:02.337Z,4.14
2023-03-07T13:46:49.289Z,3.85
2023-03-07T13:49:45.211Z,4.11
2023-03-07T13:52:49.753Z,3.61
2023-03-07T13:55:29.247Z,3.56
2023-03-07T13:58:02.377Z,3.12
2023-03-07T14:00:39.646Z,2.96
2023-03-07T14:03:27.884Z,3.36
2023-03-07T14:06:00.671Z,3.47
2023-03-07T14:08:35.664Z,3.27
2023-03-07T14:11:05.648Z,2.83
2023-03-07T14:14:15.834Z,3.06
2023-03-07T14:17:04.377Z,2.72
2023-03-07T14:19:54.125Z,2.81
2023-03-07T14:22:40.361Z,2.87
2023-03-07T14:25:18.870Z,2.57
2023-03-07T14:27:54.288Z,2.76
2023-03-07T14:30:24.626Z,2.80
2023-03-07T14:32:53.183Z,2.51
2023-03-07T14:35:41.045Z,2.41
2023-03-07T14:38:19.033Z,2.61
2023-03-07T14:41:14.554Z,2.34
2023-03-07T14:44:01.925Z,2.47
2023-03-07T14:46:54.915Z,2.27
2023-03-07T14:49:33.904Z,2.17
2023-03-07T14:52:04.880Z,2.25
2023-03-07T14:54:38.797Z,2.34
2023-03-07T14:57:15.060Z,2.29
2023-03-07T14:59:43.547Z,2.20
2023-03-07T15:02:19.486Z,2.20
2023-03-07T15:04:55.455Z,2.12
2023-03-07T15:07:24.550Z,2.12
2023-03-07T15:09:54.365Z,2.15
2023-03-07T15:12:27.264Z,2.17
2023-03-07T15:14:59.802Z,1.97
2023-03-07T15:17:32.130Z,1.91
2023-03-07T15:20:04.213Z,2.22
2023-03-07T15:22:39.786Z,2.06
2023-03-07T15:25:20.949Z,2.02
2023-03-07T15:27:59.922Z,1.98
2023-03-07T15:30:31.051Z,1.92
2023-03-07T15:33:16.725Z,1.85
2023-03-07T15:35:47.400Z,2.06
2023-03-07T15:38:19.329Z,1.86
2023-03-07T15:40:49.458Z,1.89
2023-03-07T15:43:26.809Z,1.94
2023-03-07T15:46:04.733Z,1.74
2023-03-07T15:48:45.183Z,1.64
2023-03-07T15:51:17.581Z,1.72
2023-03-07T15:53:55.066Z,1.70
2023-03-07T15:56:31.026Z,1.74
2023-03-07T15:59:04.762Z,1.91
2023-03-07T16:01:33.299Z,1.94
2023-03-07T16:04:04.618Z,1.87
2023-03-07T16:06:40.546Z,1.75
2023-03-07T16:09:14.235Z,1.80
2023-03-07T16:11:44.910Z,1.98
2023-03-07T16:14:26.381Z,1.90
2023-03-07T16:16:56.498Z,1.66
2023-03-07T16:19:25.251Z,1.76
2023-03-07T16:21:53.945Z,1.82
2023-03-07T16:24:22.525Z,1.76
2023-03-07T16:26:52.553Z,1.59
2023-03-07T16:29:23.835Z,1.70
2023-03-07T16:31:52.398Z,1.58
2023-03-07T16:34:23.210Z,1.46
2023-03-07T16:36:51.900Z,1.28
2023-03-07T16:39:20.436Z,1.19
2023-03-07T16:41:52.064Z,1.20
2023-03-07T16:44:23.682Z,1.16
2023-03-07T16:46:57.981Z,0.94
2023-03-07T16:49:26.408Z,0.97
2023-03-07T16:52:05.126Z,0.80
2023-03-07T16:54:34.964Z,0.73
2023-03-07T16:57:05.109Z,0.69
2023-03-07T16:59:36.302Z,0.73
2023-03-07T17:02:15.245Z,0.60
2023-03-07T17:04:44.448Z,0.52
2023-03-07T17:07:21.955Z,0.37
2023-03-07T17:09:51.185Z,0.47
2023-03-07T17:12:24.326Z,0.36
2023-03-07T17:14:53.849Z,0.40
2023-03-07T17:17:33.628Z,0.29
2023-03-07T17:20:02.546Z,0.13
2023-03-07T17:22:31.188Z,0.39
2023-03-07T17:25:01.133Z,0.21
2023-03-07T17:27:31.057Z,0.12
2023-03-07T17:29:59.643Z,0.03
2023-03-07T17:32:28.317Z,0.13
2023-03-07T17:34:56.853Z,0.10
2023-03-07T17:37:25.515Z,0.24
2023-03-07T17:39:54.484Z,0.12
2023-03-07T17:42:22.947Z,-0.21
2023-03-07T17:44:52.801Z,0.01
2023-03-07T17:47:21.294Z,-0.21
2023-03-07T17:49:50.382Z,-0.05
2023-03-07T17:52:18.782Z,-0.27
2023-03-07T17:54:47.891Z,-0.20
2023-03-07T17:57:16.534Z,-0.14
2023-03-07T17:59:45.120Z,-0.14
2023-03-07T18:02:17.090Z,-0.22
2023-03-07T18:04:45.658Z,-0.31
2023-03-07T18:07:14.153Z,-0.57
2023-03-07T18:09:42.590Z,-0.27
2023-03-07T18:12:11.750Z,-0.03
2023-03-07T18:14:40.236Z,-0.14
2023-03-07T18:17:08.790Z,-0.41
2023-03-07T18:19:40.642Z,-0.28
2023-03-07T18:22:09.190Z,-0.25
2023-03-07T18:24:37.922Z,-0.09
2023-03-07T18:27:08.705Z,-0.16
2023-03-07T18:29:37.542Z,0.04
2023-03-07T18:32:06.711Z,0.08
2023-03-07T18:34:35.455Z,0.13
2023-03-07T18:37:08.250Z,0.13
2023-03-07T18:39:36.693Z,0.14
2023-03-07T18:42:05.377Z,0.23
2023-03-07T18:44:33.917Z,0.28
2023-03-07T18:47:02.472Z,0.31
2023-03-07T18:49:30.946Z,0.28
2023-03-07T18:52:00.021Z,0.38
2023-03-07T18:54:29.869Z,0.37
2023-03-07T18:56:58.346Z,0.40
2023-03-07T18:59:27.057Z,0.41
2023-03-07T19:01:55.793Z,0.39
2023-03-07T19:04:24.481Z,0.38
2023-03-07T19:06:52.896Z,0.38
2023-03-07T19:09:24.057Z,0.39
2023-03-07T19:11:57.758Z,0.39
2023-03-07T19:14:26.441Z,0.35
2023-03-07T19:16:54.898Z,0.31
2023-03-07T19:19:23.339Z,0.27
2023-03-07T19:21:51.990Z,0.25
2023-03-07T19:24:20.463Z,0.12
2023-03-07T19:26:50.777Z,0.07
2023-03-07T19:29:20.605Z,0.00
2023-03-07T19:31:49.102Z,0.03
2023-03-07T19:34:18.321Z,-0.04
2023-03-07T19:36:46.783Z,0.04
2023-03-07T19:39:20.432Z,-0.16
2023-03-07T19:41:49.211Z,-0.08
2023-03-07T19:44:19.679Z,-0.14
2023-03-07T19:46:48.401Z,-0.17
2023-03-07T19:49:17.941Z,-0.19
2023-03-07T19:51:46.396Z,-0.26
2023-03-07T19:54:16.116Z,-0.19
2023-03-07T19:56:45.608Z,-0.14
2023-03-07T19:59:14.700Z,-0.19
2023-03-07T20:01:44.578Z,-0.35
2023-03-07T20:04:13.478Z,-0.35
2023-03-07T20:06:43.348Z,-0.48
2023-03-07T20:09:13.362Z,-0.56
2023-03-07T20:11:43.921Z,-0.47
2023-03-07T20:14:14.729Z,-0.34
2023-03-07T20:16:44.595Z,-0.53
2023-03-07T20:19:13.512Z,-0.55
2023-03-07T20:21:49.674Z,-0.56
2023-03-07T20:24:18.822Z,-0.64
2023-03-07T20:26:48.517Z,-0.57
2023-03-07T20:29:17.046Z,-0.54
2023-03-07T20:31:49.232Z,-0.46
2023-03-07T20:34:17.885Z,-0.56
2023-03-07T20:36:46.377Z,-0.61
2023-03-07T20:39:15.696Z,-0.90
2023-03-07T20:41:45.694Z,-0.59
2023-03-07T20:44:16.617Z,-0.42
2023-03-07T20:46:46.807Z,-0.45
2023-03-07T20:49:16.656Z,-0.44
2023-03-07T20:51:46.296Z,-0.53
2023-03-07T20:54:19.450Z,-0.63
2023-03-07T20:56:48.868Z,-0.41
2023-03-07T20:59:20.433Z,-0.54
2023-03-07T21:01:50.574Z,-0.61
2023-03-07T21:04:20.870Z,-0.55
2023-03-07T21:06:50.585Z,-0.54
2023-03-07T21:09:20.454Z,-0.45
2023-03-07T21:11:50.498Z,-0.46
2023-03-07T21:14:20.497Z,-0.53
2023-03-07T21:16:50.391Z,-0.63
2023-03-07T21:19:18.908Z,-0.52
2023-03-07T21:21:47.372Z,-0.50
2023-03-07T21:24:16.328Z,-0.40
2023-03-07T21:26:45.322Z,-0.45
2023-03-07T21:29:14.180Z,-0.45
2023-03-07T21:31:43.007Z,-0.51
2023-03-07T21:34:15.240Z,-0.47
2023-03-07T21:36:44.153Z,-0.47
2023-03-07T21:39:13.249Z,-0.55
2023-03-07T21:41:42.360Z,-0.41
2023-03-07T21:44:11.605Z,-0.40
2023-03-07T21:46:40.130Z,-0.31
2023-03-07T21:49:08.787Z,-0.46
2023-03-07T21:51:38.636Z,-0.43
2023-03-07T21:54:07.303Z,-0.39
2023-03-07T21:56:35.774Z,-0.39
2023-03-07T21:59:04.269Z,-0.37
2023-03-07T22:01:32.981Z,-0.31
2023-03-07T22:04:01.551Z,-0.33
2023-03-07T22:06:30.575Z,-0.39
2023-03-07T22:09:01.425Z,-0.44
2023-03-07T22:11:29.913Z,-0.30
2023-03-07T22:13:58.348Z,-0.43
2023-03-07T22:16:26.862Z,-0.33
2023-03-07T22:18:56.908Z,-0.32
2023-03-07T22:21:26.682Z,-0.39
2023-03-07T22:23:58.075Z,-0.31
2023-03-07T22:26:29.844Z,-0.30
2023-03-07T22:28:58.514Z,-0.41
2023-03-07T22:31:27.824Z,-0.46
2023-03-07T22:33:56.597Z,-0.51
2023-03-07T22:36:25.224Z,-0.35
2023-03-07T22:38:56.823Z,-0.43
2023-03-07T22:41:27.348Z,-0.34
2023-03-07T22:43:56.149Z,-0.32
2023-03-07T22:46:25.361Z,-0.44
2023-03-07T22:48:54.860Z,-0.25
2023-03-07T22:51:25.268Z,-0.41
2023-03-07T22:53:55.315Z,-0.32
2023-03-07T22:56:27.741Z,-0.32
2023-03-07T22:58:56.266Z,-0.42
2023-03-07T23:01:27.614Z,-0.29
2023-03-07T23:03:58.336Z,-0.43
2023-03-07T23:06:30.645Z,-0.56
2023-03-07T23:09:00.916Z,-0.57
2023-03-07T23:11:32.882Z,-0.50
2023-03-07T23:14:02.079Z,-0.42
2023-03-07T23:16:32.217Z,-0.50
2023-03-07T23:19:01.908Z,-0.46
2023-03-07T23:21:33.271Z,-0.50
2023-03-07T23:24:03.412Z,-0.49
2023-03-07T23:26:36.018Z,-0.48
2023-03-07T23:29:05.175Z,-0.48
2023-03-07T23:31:36.597Z,-0.63
2023-03-07T23:34:08.855Z,-0.54
2023-03-07T23:36:37.573Z,-0.86
2023-03-07T23:39:06.254Z,-0.56
2023-03-07T23:41:36.220Z,-0.58
2023-03-07T23:44:04.786Z,-0.71
2023-03-07T23:46:33.593Z,-0.68
2023-03-07T23:49:03.302Z,-0.73
2023-03-07T23:51:32.087Z,-0.65
2023-03-07T23:54:00.569Z,-0.67
2023-03-07T23:56:29.038Z,-0.95
2023-03-07T23:58:58.909Z,-1.14
